sensor_id;sensor_type;location;lat;lon;timestamp;temperature;humidity
35027;DHT22;60696;51.426;6.934;2022-07-18T00:01:58;19.90;69.10
35027;DHT22;60696;51.426;6.934;2022-07-18T00:04:24;19.80;69.10
35027;DHT22;60696;51.426;6.934;2022-07-18T00:06:50;19.70;69.20
35027;DHT22;60696;51.426;6.934;2022-07-18T00:09:16;19.80;69.60
35027;DHT22;60696;51.426;6.934;2022-07-18T00:11:41;19.90;69.00
35027;DHT22;60696;51.426;6.934;2022-07-18T00:14:07;19.90;68.40
35027;DHT22;60696;51.426;6.934;2022-07-18T00:16:33;19.90;68.50
35027;DHT22;60696;51.426;6.934;2022-07-18T00:18:58;20.00;68.30
35027;DHT22;60696;51.426;6.934;2022-07-18T00:21:25;19.90;68.20
35027;DHT22;60696;51.426;6.934;2022-07-18T00:23:51;20.00;68.00
35027;DHT22;60696;51.426;6.934;2022-07-18T00:26:17;20.00;67.90
35027;DHT22;60696;51.426;6.934;2022-07-18T00:28:43;19.80;69.00
35027;DHT22;60696;51.426;6.934;2022-07-18T00:31:08;19.60;70.80
35027;DHT22;60696;51.426;6.934;2022-07-18T00:33:34;19.40;69.60
35027;DHT22;60696;51.426;6.934;2022-07-18T00:36:00;19.30;70.20
35027;DHT22;60696;51.426;6.934;2022-07-18T00:38:25;19.40;70.10
35027;DHT22;60696;51.426;6.934;2022-07-18T00:40:51;19.40;70.10
35027;DHT22;60696;51.426;6.934;2022-07-18T00:43:16;19.30;70.40
35027;DHT22;60696;51.426;6.934;2022-07-18T00:45:47;19.20;70.90
35027;DHT22;60696;51.426;6.934;2022-07-18T00:48:13;19.10;71.40
35027;DHT22;60696;51.426;6.934;2022-07-18T00:50:39;18.90;71.90
35027;DHT22;60696;51.426;6.934;2022-07-18T00:53:05;18.90;72.20
35027;DHT22;60696;51.426;6.934;2022-07-18T00:55:31;18.70;73.10
35027;DHT22;60696;51.426;6.934;2022-07-18T00:57:58;18.60;73.50
35027;DHT22;60696;51.426;6.934;2022-07-18T01:00:24;18.50;74.30
35027;DHT22;60696;51.426;6.934;2022-07-18T01:03:09;18.50;74.70
35027;DHT22;60696;51.426;6.934;2022-07-18T01:05:35;18.40;75.20
35027;DHT22;60696;51.426;6.934;2022-07-18T01:08:01;18.40;75.30
35027;DHT22;60696;51.426;6.934;2022-07-18T01:10:27;18.30;75.80
35027;DHT22;60696;51.426;6.934;2022-07-18T01:12:53;18.30;75.70
35027;DHT22;60696;51.426;6.934;2022-07-18T01:15:18;18.20;76.40
35027;DHT22;60696;51.426;6.934;2022-07-18T01:17:44;18.00;78.60
35027;DHT22;60696;51.426;6.934;2022-07-18T01:20:10;17.90;80.40
35027;DHT22;60696;51.426;6.934;2022-07-18T01:22:36;17.90;78.60
35027;DHT22;60696;51.426;6.934;2022-07-18T01:25:05;17.70;82.20
35027;DHT22;60696;51.426;6.934;2022-07-18T01:27:30;17.60;81.50
35027;DHT22;60696;51.426;6.934;2022-07-18T01:29:56;17.70;84.40
35027;DHT22;60696;51.426;6.934;2022-07-18T01:32:22;17.50;86.00
35027;DHT22;60696;51.426;6.934;2022-07-18T01:34:48;17.60;82.20
35027;DHT22;60696;51.426;6.934;2022-07-18T01:37:15;17.70;82.10
35027;DHT22;60696;51.426;6.934;2022-07-18T01:39:41;17.70;82.70
35027;DHT22;60696;51.426;6.934;2022-07-18T01:42:08;17.60;83.30
35027;DHT22;60696;51.426;6.934;2022-07-18T01:44:35;17.60;85.80
35027;DHT22;60696;51.426;6.934;2022-07-18T01:47:03;17.60;85.90
35027;DHT22;60696;51.426;6.934;2022-07-18T01:49:29;17.50;87.60
35027;DHT22;60696;51.426;6.934;2022-07-18T01:51:58;17.70;88.00
35027;DHT22;60696;51.426;6.934;2022-07-18T01:54:27;17.70;88.20
35027;DHT22;60696;51.426;6.934;2022-07-18T01:56:54;17.70;88.70
35027;DHT22;60696;51.426;6.934;2022-07-18T01:59:19;17.60;88.60
35027;DHT22;60696;51.426;6.934;2022-07-18T02:01:46;17.50;89.60
35027;DHT22;60696;51.426;6.934;2022-07-18T02:04:11;17.40;90.20
35027;DHT22;60696;51.426;6.934;2022-07-18T02:06:37;17.50;90.70
35027;DHT22;60696;51.426;6.934;2022-07-18T02:09:04;17.50;89.90
35027;DHT22;60696;51.426;6.934;2022-07-18T02:11:29;17.40;90.10
35027;DHT22;60696;51.426;6.934;2022-07-18T02:13:56;17.40;90.30
35027;DHT22;60696;51.426;6.934;2022-07-18T02:16:22;17.30;92.30
35027;DHT22;60696;51.426;6.934;2022-07-18T02:18:47;17.30;92.20
35027;DHT22;60696;51.426;6.934;2022-07-18T02:21:13;17.10;93.40
35027;DHT22;60696;51.426;6.934;2022-07-18T02:23:40;17.10;94.00
35027;DHT22;60696;51.426;6.934;2022-07-18T02:26:07;16.80;96.20
35027;DHT22;60696;51.426;6.934;2022-07-18T02:28:33;16.40;97.40
35027;DHT22;60696;51.426;6.934;2022-07-18T02:30:58;16.50;96.60
35027;DHT22;60696;51.426;6.934;2022-07-18T02:33:24;16.30;98.10
35027;DHT22;60696;51.426;6.934;2022-07-18T02:35:50;16.10;99.30
35027;DHT22;60696;51.426;6.934;2022-07-18T02:38:16;16.00;99.60
35027;DHT22;60696;51.426;6.934;2022-07-18T02:40:42;15.80;99.90
35027;DHT22;60696;51.426;6.934;2022-07-18T02:43:08;15.70;99.90
35027;DHT22;60696;51.426;6.934;2022-07-18T02:45:34;15.60;99.90
35027;DHT22;60696;51.426;6.934;2022-07-18T02:47:59;15.50;99.90
35027;DHT22;60696;51.426;6.934;2022-07-18T02:50:25;15.40;99.90
35027;DHT22;60696;51.426;6.934;2022-07-18T02:52:51;15.30;99.90
35027;DHT22;60696;51.426;6.934;2022-07-18T02:55:17;15.20;99.90
35027;DHT22;60696;51.426;6.934;2022-07-18T02:57:43;15.20;99.90
35027;DHT22;60696;51.426;6.934;2022-07-18T03:00:11;15.10;99.90
35027;DHT22;60696;51.426;6.934;2022-07-18T03:02:37;15.00;99.90
35027;DHT22;60696;51.426;6.934;2022-07-18T03:05:04;14.90;99.90
35027;DHT22;60696;51.426;6.934;2022-07-18T03:07:30;14.90;99.90
35027;DHT22;60696;51.426;6.934;2022-07-18T03:09:55;14.90;99.90
35027;DHT22;60696;51.426;6.934;2022-07-18T03:12:21;14.90;99.90
35027;DHT22;60696;51.426;6.934;2022-07-18T03:14:47;14.90;99.90
35027;DHT22;60696;51.426;6.934;2022-07-18T03:17:13;14.80;99.90
35027;DHT22;60696;51.426;6.934;2022-07-18T03:19:39;14.70;99.90
35027;DHT22;60696;51.426;6.934;2022-07-18T03:22:05;14.60;99.90
35027;DHT22;60696;51.426;6.934;2022-07-18T03:24:31;14.70;99.90
35027;DHT22;60696;51.426;6.934;2022-07-18T03:26:57;14.80;99.90
35027;DHT22;60696;51.426;6.934;2022-07-18T03:29:23;14.70;99.90
35027;DHT22;60696;51.426;6.934;2022-07-18T03:31:50;14.80;99.90
35027;DHT22;60696;51.426;6.934;2022-07-18T03:34:16;14.80;99.90
35027;DHT22;60696;51.426;6.934;2022-07-18T03:36:41;14.70;99.90
35027;DHT22;60696;51.426;6.934;2022-07-18T03:39:08;14.60;99.90
35027;DHT22;60696;51.426;6.934;2022-07-18T03:41:34;14.50;99.90
35027;DHT22;60696;51.426;6.934;2022-07-18T03:44:00;14.50;99.90
35027;DHT22;60696;51.426;6.934;2022-07-18T03:46:26;14.60;99.90
35027;DHT22;60696;51.426;6.934;2022-07-18T03:48:52;14.50;99.90
35027;DHT22;60696;51.426;6.934;2022-07-18T03:51:17;14.40;99.90
35027;DHT22;60696;51.426;6.934;2022-07-18T03:53:43;14.40;99.90
35027;DHT22;60696;51.426;6.934;2022-07-18T03:56:08;14.40;99.90
35027;DHT22;60696;51.426;6.934;2022-07-18T03:58:34;14.50;99.90
35027;DHT22;60696;51.426;6.934;2022-07-18T04:01:00;14.60;99.90
35027;DHT22;60696;51.426;6.934;2022-07-18T04:03:26;14.70;99.90
35027;DHT22;60696;51.426;6.934;2022-07-18T04:05:51;14.80;99.90
35027;DHT22;60696;51.426;6.934;2022-07-18T04:08:17;14.90;99.90
35027;DHT22;60696;51.426;6.934;2022-07-18T04:10:43;15.10;99.90
35027;DHT22;60696;51.426;6.934;2022-07-18T04:13:09;15.10;99.90
35027;DHT22;60696;51.426;6.934;2022-07-18T04:15:37;15.30;99.90
35027;DHT22;60696;51.426;6.934;2022-07-18T04:18:04;15.40;99.90
35027;DHT22;60696;51.426;6.934;2022-07-18T04:20:30;15.50;99.90
35027;DHT22;60696;51.426;6.934;2022-07-18T04:22:58;15.70;99.90
35027;DHT22;60696;51.426;6.934;2022-07-18T04:25:27;15.90;99.90
35027;DHT22;60696;51.426;6.934;2022-07-18T04:27:54;16.20;99.90
35027;DHT22;60696;51.426;6.934;2022-07-18T04:30:22;16.50;99.90
35027;DHT22;60696;51.426;6.934;2022-07-18T04:32:49;17.00;99.90
35027;DHT22;60696;51.426;6.934;2022-07-18T04:35:15;17.20;99.10
35027;DHT22;60696;51.426;6.934;2022-07-18T04:37:41;17.50;99.20
35027;DHT22;60696;51.426;6.934;2022-07-18T04:40:08;17.60;98.30
35027;DHT22;60696;51.426;6.934;2022-07-18T04:42:35;17.80;97.90
35027;DHT22;60696;51.426;6.934;2022-07-18T04:45:01;17.90;97.40
35027;DHT22;60696;51.426;6.934;2022-07-18T04:47:27;18.20;96.50
35027;DHT22;60696;51.426;6.934;2022-07-18T04:49:53;18.50;95.50
35027;DHT22;60696;51.426;6.934;2022-07-18T04:52:19;18.60;95.50
35027;DHT22;60696;51.426;6.934;2022-07-18T04:54:45;18.80;95.20
35027;DHT22;60696;51.426;6.934;2022-07-18T04:57:11;19.20;94.30
35027;DHT22;60696;51.426;6.934;2022-07-18T04:59:43;20.00;92.70
35027;DHT22;60696;51.426;6.934;2022-07-18T05:02:09;21.20;90.60
35027;DHT22;60696;51.426;6.934;2022-07-18T05:04:35;22.40;85.60
35027;DHT22;60696;51.426;6.934;2022-07-18T05:07:01;23.50;79.30
35027;DHT22;60696;51.426;6.934;2022-07-18T05:09:27;24.70;75.40
35027;DHT22;60696;51.426;6.934;2022-07-18T05:11:54;25.50;70.40
35027;DHT22;60696;51.426;6.934;2022-07-18T05:14:19;26.00;69.00
35027;DHT22;60696;51.426;6.934;2022-07-18T05:16:46;26.30;65.50
35027;DHT22;60696;51.426;6.934;2022-07-18T05:19:12;27.20;64.80
35027;DHT22;60696;51.426;6.934;2022-07-18T05:21:38;27.50;62.80
35027;DHT22;60696;51.426;6.934;2022-07-18T05:24:03;27.30;61.80
35027;DHT22;60696;51.426;6.934;2022-07-18T05:26:29;26.70;60.40
35027;DHT22;60696;51.426;6.934;2022-07-18T05:28:55;26.30;62.00
35027;DHT22;60696;51.426;6.934;2022-07-18T05:31:20;26.30;61.30
35027;DHT22;60696;51.426;6.934;2022-07-18T05:33:46;26.50;61.40
35027;DHT22;60696;51.426;6.934;2022-07-18T05:36:12;27.30;60.60
35027;DHT22;60696;51.426;6.934;2022-07-18T05:38:37;27.60;59.80
35027;DHT22;60696;51.426;6.934;2022-07-18T05:41:03;28.00;58.70
35027;DHT22;60696;51.426;6.934;2022-07-18T05:43:29;28.20;58.00
35027;DHT22;60696;51.426;6.934;2022-07-18T05:45:54;28.30;57.80
35027;DHT22;60696;51.426;6.934;2022-07-18T05:48:20;28.80;56.60
35027;DHT22;60696;51.426;6.934;2022-07-18T05:50:46;28.90;55.30
35027;DHT22;60696;51.426;6.934;2022-07-18T05:53:11;29.10;56.30
35027;DHT22;60696;51.426;6.934;2022-07-18T05:55:37;28.70;55.70
35027;DHT22;60696;51.426;6.934;2022-07-18T05:58:03;29.10;56.10
35027;DHT22;60696;51.426;6.934;2022-07-18T06:00:29;29.60;53.80
35027;DHT22;60696;51.426;6.934;2022-07-18T06:02:55;30.20;54.90
35027;DHT22;60696;51.426;6.934;2022-07-18T06:05:21;31.00;52.80
35027;DHT22;60696;51.426;6.934;2022-07-18T06:07:47;30.50;52.00
35027;DHT22;60696;51.426;6.934;2022-07-18T06:10:13;30.40;52.70
35027;DHT22;60696;51.426;6.934;2022-07-18T06:12:39;29.90;53.50
35027;DHT22;60696;51.426;6.934;2022-07-18T06:15:05;30.20;53.00
35027;DHT22;60696;51.426;6.934;2022-07-18T06:17:33;30.50;52.50
35027;DHT22;60696;51.426;6.934;2022-07-18T06:19:59;30.90;51.50
35027;DHT22;60696;51.426;6.934;2022-07-18T06:22:25;31.40;51.90
35027;DHT22;60696;51.426;6.934;2022-07-18T06:24:51;31.80;50.80
35027;DHT22;60696;51.426;6.934;2022-07-18T06:27:17;31.90;50.00
35027;DHT22;60696;51.426;6.934;2022-07-18T06:29:42;31.60;50.30
35027;DHT22;60696;51.426;6.934;2022-07-18T06:49:54;35.80;48.20
35027;DHT22;60696;51.426;6.934;2022-07-18T06:52:42;36.50;45.90
35027;DHT22;60696;51.426;6.934;2022-07-18T06:55:08;36.60;45.80
35027;DHT22;60696;51.426;6.934;2022-07-18T06:57:35;36.80;45.20
35027;DHT22;60696;51.426;6.934;2022-07-18T07:00:01;36.80;44.70
35027;DHT22;60696;51.426;6.934;2022-07-18T07:02:27;36.40;44.20
35027;DHT22;60696;51.426;6.934;2022-07-18T07:04:52;35.20;45.70
35027;DHT22;60696;51.426;6.934;2022-07-18T07:07:18;35.50;45.40
35027;DHT22;60696;51.426;6.934;2022-07-18T07:09:44;35.70;44.70
35027;DHT22;60696;51.426;6.934;2022-07-18T07:12:10;36.00;45.00
35027;DHT22;60696;51.426;6.934;2022-07-18T07:14:36;35.70;44.40
35027;DHT22;60696;51.426;6.934;2022-07-18T07:17:02;36.60;44.40
35027;DHT22;60696;51.426;6.934;2022-07-18T07:19:28;37.40;44.80
35027;DHT22;60696;51.426;6.934;2022-07-18T07:21:53;36.20;44.20
35027;DHT22;60696;51.426;6.934;2022-07-18T07:24:19;36.40;44.30
35027;DHT22;60696;51.426;6.934;2022-07-18T07:26:45;37.50;44.60
35027;DHT22;60696;51.426;6.934;2022-07-18T07:29:10;37.40;42.60
35027;DHT22;60696;51.426;6.934;2022-07-18T07:31:36;35.60;42.40
35027;DHT22;60696;51.426;6.934;2022-07-18T07:37:53;36.20;46.50
35027;DHT22;60696;51.426;6.934;2022-07-18T07:54:22;41.60;42.20
35027;DHT22;60696;51.426;6.934;2022-07-18T07:56:48;41.50;41.90
35027;DHT22;60696;51.426;6.934;2022-07-18T07:59:13;40.00;41.40
35027;DHT22;60696;51.426;6.934;2022-07-18T08:01:39;40.70;42.30
35027;DHT22;60696;51.426;6.934;2022-07-18T08:04:04;41.00;41.40
35027;DHT22;60696;51.426;6.934;2022-07-18T08:09:03;41.60;40.00
35027;DHT22;60696;51.426;6.934;2022-07-18T08:11:28;41.80;40.30
35027;DHT22;60696;51.426;6.934;2022-07-18T08:13:54;40.40;39.90
35027;DHT22;60696;51.426;6.934;2022-07-18T08:16:20;40.50;40.50
35027;DHT22;60696;51.426;6.934;2022-07-18T08:18:45;40.50;40.20
35027;DHT22;60696;51.426;6.934;2022-07-18T08:21:11;40.40;38.60
35027;DHT22;60696;51.426;6.934;2022-07-18T08:23:37;39.10;40.50
35027;DHT22;60696;51.426;6.934;2022-07-18T08:26:03;39.60;40.40
35027;DHT22;60696;51.426;6.934;2022-07-18T08:32:02;39.50;40.90
35027;DHT22;60696;51.426;6.934;2022-07-18T08:34:27;40.40;41.70
35027;DHT22;60696;51.426;6.934;2022-07-18T08:36:53;40.40;38.90
35027;DHT22;60696;51.426;6.934;2022-07-18T08:39:19;40.00;40.70
35027;DHT22;60696;51.426;6.934;2022-07-18T08:41:45;40.20;40.00
35027;DHT22;60696;51.426;6.934;2022-07-18T08:44:14;39.80;40.70
35027;DHT22;60696;51.426;6.934;2022-07-18T08:46:40;41.00;39.60
35027;DHT22;60696;51.426;6.934;2022-07-18T08:49:09;40.90;38.40
35027;DHT22;60696;51.426;6.934;2022-07-18T08:51:35;40.60;38.60
35027;DHT22;60696;51.426;6.934;2022-07-18T08:54:02;40.50;39.00
35027;DHT22;60696;51.426;6.934;2022-07-18T08:56:28;39.70;39.10
35027;DHT22;60696;51.426;6.934;2022-07-18T08:58:54;38.90;41.10
35027;DHT22;60696;51.426;6.934;2022-07-18T09:01:20;38.40;41.50
35027;DHT22;60696;51.426;6.934;2022-07-18T09:03:46;39.90;41.40
35027;DHT22;60696;51.426;6.934;2022-07-18T09:06:44;41.50;39.50
35027;DHT22;60696;51.426;6.934;2022-07-18T09:09:12;42.40;38.70
35027;DHT22;60696;51.426;6.934;2022-07-18T09:12:00;42.20;38.20
35027;DHT22;60696;51.426;6.934;2022-07-18T09:14:37;42.70;38.50
35027;DHT22;60696;51.426;6.934;2022-07-18T09:17:27;42.30;38.70
35027;DHT22;60696;51.426;6.934;2022-07-18T09:20:05;41.20;39.40
35027;DHT22;60696;51.426;6.934;2022-07-18T09:22:44;41.50;39.70
35027;DHT22;60696;51.426;6.934;2022-07-18T09:25:12;41.20;39.20
35027;DHT22;60696;51.426;6.934;2022-07-18T09:27:44;40.90;38.40
35027;DHT22;60696;51.426;6.934;2022-07-18T09:32:49;40.30;39.20
35027;DHT22;60696;51.426;6.934;2022-07-18T09:35:23;40.10;39.00
35027;DHT22;60696;51.426;6.934;2022-07-18T09:40:21;38.30;42.00
35027;DHT22;60696;51.426;6.934;2022-07-18T09:42:54;38.90;41.70
35027;DHT22;60696;51.426;6.934;2022-07-18T09:45:22;38.90;42.70
35027;DHT22;60696;51.426;6.934;2022-07-18T09:47:52;37.70;42.20
35027;DHT22;60696;51.426;6.934;2022-07-18T09:50:27;37.00;41.70
35027;DHT22;60696;51.426;6.934;2022-07-18T09:57:08;36.50;43.20
35027;DHT22;60696;51.426;6.934;2022-07-18T10:06:34;34.50;45.20
35027;DHT22;60696;51.426;6.934;2022-07-18T10:09:04;35.10;45.00
35027;DHT22;60696;51.426;6.934;2022-07-18T10:11:32;35.50;43.50
35027;DHT22;60696;51.426;6.934;2022-07-18T10:14:11;34.90;41.80
35027;DHT22;60696;51.426;6.934;2022-07-18T10:16:58;34.60;43.20
35027;DHT22;60696;51.426;6.934;2022-07-18T10:19:27;34.60;44.00
35027;DHT22;60696;51.426;6.934;2022-07-18T10:21:53;34.60;43.10
35027;DHT22;60696;51.426;6.934;2022-07-18T10:27:27;34.90;40.70
35027;DHT22;60696;51.426;6.934;2022-07-18T10:30:12;34.90;44.30
35027;DHT22;60696;51.426;6.934;2022-07-18T10:32:38;34.90;43.20
35027;DHT22;60696;51.426;6.934;2022-07-18T10:35:07;35.00;44.10
35027;DHT22;60696;51.426;6.934;2022-07-18T10:37:34;35.10;44.00
35027;DHT22;60696;51.426;6.934;2022-07-18T10:40:20;35.10;43.00
35027;DHT22;60696;51.426;6.934;2022-07-18T10:46:08;34.50;42.80
35027;DHT22;60696;51.426;6.934;2022-07-18T10:59:16;34.60;41.40
35027;DHT22;60696;51.426;6.934;2022-07-18T11:01:48;33.80;43.70
35027;DHT22;60696;51.426;6.934;2022-07-18T11:04:34;34.00;42.90
35027;DHT22;60696;51.426;6.934;2022-07-18T11:07:10;34.60;45.70
35027;DHT22;60696;51.426;6.934;2022-07-18T11:09:42;34.70;44.00
35027;DHT22;60696;51.426;6.934;2022-07-18T11:15:11;35.00;44.20
35027;DHT22;60696;51.426;6.934;2022-07-18T11:17:56;35.10;44.80
35027;DHT22;60696;51.426;6.934;2022-07-18T11:22:59;34.70;42.70
35027;DHT22;60696;51.426;6.934;2022-07-18T11:25:29;35.00;45.00
35027;DHT22;60696;51.426;6.934;2022-07-18T11:27:55;34.90;43.90
35027;DHT22;60696;51.426;6.934;2022-07-18T11:30:23;34.60;43.10
35027;DHT22;60696;51.426;6.934;2022-07-18T11:33:28;34.80;43.80
35027;DHT22;60696;51.426;6.934;2022-07-18T11:36:09;34.80;44.30
35027;DHT22;60696;51.426;6.934;2022-07-18T11:38:56;34.80;43.60
35027;DHT22;60696;51.426;6.934;2022-07-18T11:41:25;34.70;43.10
35027;DHT22;60696;51.426;6.934;2022-07-18T11:43:52;34.60;43.50
35027;DHT22;60696;51.426;6.934;2022-07-18T11:46:20;34.20;41.50
35027;DHT22;60696;51.426;6.934;2022-07-18T11:48:49;33.70;43.20
35027;DHT22;60696;51.426;6.934;2022-07-18T11:54:49;33.80;44.50
35027;DHT22;60696;51.426;6.934;2022-07-18T11:57:26;33.60;44.00
35027;DHT22;60696;51.426;6.934;2022-07-18T11:59:53;33.80;44.80
35027;DHT22;60696;51.426;6.934;2022-07-18T12:02:19;34.00;44.50
35027;DHT22;60696;51.426;6.934;2022-07-18T12:04:45;34.20;44.70
35027;DHT22;60696;51.426;6.934;2022-07-18T12:07:13;34.30;43.00
35027;DHT22;60696;51.426;6.934;2022-07-18T12:09:50;34.30;43.80
35027;DHT22;60696;51.426;6.934;2022-07-18T12:12:18;33.90;42.50
35027;DHT22;60696;51.426;6.934;2022-07-18T12:14:53;33.90;45.00
35027;DHT22;60696;51.426;6.934;2022-07-18T12:17:19;34.10;43.70
35027;DHT22;60696;51.426;6.934;2022-07-18T12:19:45;33.70;43.40
35027;DHT22;60696;51.426;6.934;2022-07-18T12:22:12;33.80;45.10
35027;DHT22;60696;51.426;6.934;2022-07-18T12:24:53;33.90;45.50
35027;DHT22;60696;51.426;6.934;2022-07-18T12:32:28;34.10;45.50
35027;DHT22;60696;51.426;6.934;2022-07-18T12:35:00;33.90;43.30
35027;DHT22;60696;51.426;6.934;2022-07-18T12:37:27;33.80;43.70
35027;DHT22;60696;51.426;6.934;2022-07-18T12:40:08;33.70;44.70
35027;DHT22;60696;51.426;6.934;2022-07-18T12:42:41;33.60;45.00
35027;DHT22;60696;51.426;6.934;2022-07-18T12:45:12;33.50;43.60
35027;DHT22;60696;51.426;6.934;2022-07-18T12:47:38;33.10;43.20
35027;DHT22;60696;51.426;6.934;2022-07-18T12:50:05;32.70;43.60
35027;DHT22;60696;51.426;6.934;2022-07-18T12:52:31;32.80;45.40
35027;DHT22;60696;51.426;6.934;2022-07-18T12:54:57;33.20;46.60
35027;DHT22;60696;51.426;6.934;2022-07-18T12:57:23;33.40;43.90
35027;DHT22;60696;51.426;6.934;2022-07-18T12:59:49;33.10;44.40
35027;DHT22;60696;51.426;6.934;2022-07-18T13:02:15;33.10;45.60
35027;DHT22;60696;51.426;6.934;2022-07-18T13:04:41;32.80;46.00
35027;DHT22;60696;51.426;6.934;2022-07-18T13:07:07;32.50;43.60
35027;DHT22;60696;51.426;6.934;2022-07-18T13:09:33;32.60;45.80
35027;DHT22;60696;51.426;6.934;2022-07-18T13:11:59;32.80;46.00
35027;DHT22;60696;51.426;6.934;2022-07-18T13:14:26;33.10;46.30
35027;DHT22;60696;51.426;6.934;2022-07-18T13:16:52;33.10;44.70
35027;DHT22;60696;51.426;6.934;2022-07-18T13:19:18;33.00;45.90
35027;DHT22;60696;51.426;6.934;2022-07-18T13:21:45;33.10;45.20
35027;DHT22;60696;51.426;6.934;2022-07-18T13:24:11;33.10;46.50
35027;DHT22;60696;51.426;6.934;2022-07-18T13:26:37;33.10;45.30
35027;DHT22;60696;51.426;6.934;2022-07-18T13:29:04;33.10;44.50
35027;DHT22;60696;51.426;6.934;2022-07-18T13:31:30;33.10;45.80
35027;DHT22;60696;51.426;6.934;2022-07-18T13:33:56;33.00;43.80
35027;DHT22;60696;51.426;6.934;2022-07-18T13:36:21;32.90;45.30
35027;DHT22;60696;51.426;6.934;2022-07-18T13:38:47;32.80;45.10
35027;DHT22;60696;51.426;6.934;2022-07-18T13:41:13;32.80;46.60
35027;DHT22;60696;51.426;6.934;2022-07-18T13:43:39;32.80;46.10
35027;DHT22;60696;51.426;6.934;2022-07-18T13:46:12;32.70;44.70
35027;DHT22;60696;51.426;6.934;2022-07-18T13:48:38;32.80;45.80
35027;DHT22;60696;51.426;6.934;2022-07-18T13:51:05;32.70;46.20
35027;DHT22;60696;51.426;6.934;2022-07-18T13:53:31;32.60;45.70
35027;DHT22;60696;51.426;6.934;2022-07-18T13:55:58;32.50;44.80
35027;DHT22;60696;51.426;6.934;2022-07-18T13:58:23;32.50;46.20
35027;DHT22;60696;51.426;6.934;2022-07-18T14:00:49;32.50;45.60
35027;DHT22;60696;51.426;6.934;2022-07-18T14:03:15;32.60;45.40
35027;DHT22;60696;51.426;6.934;2022-07-18T14:05:41;32.40;44.00
35027;DHT22;60696;51.426;6.934;2022-07-18T14:08:07;32.20;45.90
35027;DHT22;60696;51.426;6.934;2022-07-18T14:10:34;32.20;45.00
35027;DHT22;60696;51.426;6.934;2022-07-18T14:13:00;32.10;45.90
35027;DHT22;60696;51.426;6.934;2022-07-18T14:15:26;32.10;46.40
35027;DHT22;60696;51.426;6.934;2022-07-18T14:17:51;32.20;45.80
35027;DHT22;60696;51.426;6.934;2022-07-18T14:20:18;32.20;46.90
35027;DHT22;60696;51.426;6.934;2022-07-18T14:22:45;32.10;45.30
35027;DHT22;60696;51.426;6.934;2022-07-18T14:25:13;32.10;45.30
35027;DHT22;60696;51.426;6.934;2022-07-18T14:27:39;32.10;46.30
35027;DHT22;60696;51.426;6.934;2022-07-18T14:30:09;32.10;46.60
35027;DHT22;60696;51.426;6.934;2022-07-18T14:32:35;31.90;45.80
35027;DHT22;60696;51.426;6.934;2022-07-18T14:35:01;31.90;46.10
35027;DHT22;60696;51.426;6.934;2022-07-18T14:37:27;31.90;47.40
35027;DHT22;60696;51.426;6.934;2022-07-18T14:39:53;31.90;47.50
35027;DHT22;60696;51.426;6.934;2022-07-18T14:42:21;31.80;47.50
35027;DHT22;60696;51.426;6.934;2022-07-18T14:44:51;31.80;47.10
35027;DHT22;60696;51.426;6.934;2022-07-18T14:47:21;31.80;45.70
35027;DHT22;60696;51.426;6.934;2022-07-18T14:49:49;31.80;47.30
35027;DHT22;60696;51.426;6.934;2022-07-18T14:52:14;31.80;46.70
35027;DHT22;60696;51.426;6.934;2022-07-18T14:54:40;31.70;45.00
35027;DHT22;60696;51.426;6.934;2022-07-18T14:57:06;31.50;45.80
35027;DHT22;60696;51.426;6.934;2022-07-18T14:59:32;31.60;47.60
35027;DHT22;60696;51.426;6.934;2022-07-18T15:01:58;31.50;47.30
35027;DHT22;60696;51.426;6.934;2022-07-18T15:04:25;31.50;46.70
35027;DHT22;60696;51.426;6.934;2022-07-18T15:06:51;31.50;46.90
35027;DHT22;60696;51.426;6.934;2022-07-18T15:09:17;31.50;46.20
35027;DHT22;60696;51.426;6.934;2022-07-18T15:11:43;31.60;46.20
35027;DHT22;60696;51.426;6.934;2022-07-18T15:14:14;31.50;46.80
35027;DHT22;60696;51.426;6.934;2022-07-18T15:16:40;31.50;46.20
35027;DHT22;60696;51.426;6.934;2022-07-18T15:19:05;31.40;46.80
35027;DHT22;60696;51.426;6.934;2022-07-18T15:21:33;31.30;45.70
35027;DHT22;60696;51.426;6.934;2022-07-18T15:23:59;31.30;46.20
35027;DHT22;60696;51.426;6.934;2022-07-18T15:26:25;31.30;48.00
35027;DHT22;60696;51.426;6.934;2022-07-18T15:28:51;31.20;47.20
35027;DHT22;60696;51.426;6.934;2022-07-18T15:31:17;31.20;46.90
35027;DHT22;60696;51.426;6.934;2022-07-18T15:33:42;31.20;46.80
35027;DHT22;60696;51.426;6.934;2022-07-18T15:36:08;31.20;47.30
35027;DHT22;60696;51.426;6.934;2022-07-18T15:38:37;31.20;47.10
35027;DHT22;60696;51.426;6.934;2022-07-18T15:47:48;31.30;46.70
35027;DHT22;60696;51.426;6.934;2022-07-18T15:50:14;31.40;46.40
35027;DHT22;60696;51.426;6.934;2022-07-18T15:52:41;31.40;46.60
35027;DHT22;60696;51.426;6.934;2022-07-18T15:55:07;31.30;47.00
35027;DHT22;60696;51.426;6.934;2022-07-18T15:57:33;31.20;46.50
35027;DHT22;60696;51.426;6.934;2022-07-18T15:59:59;31.20;46.70
35027;DHT22;60696;51.426;6.934;2022-07-18T16:02:24;31.20;46.80
35027;DHT22;60696;51.426;6.934;2022-07-18T16:04:50;31.20;47.00
35027;DHT22;60696;51.426;6.934;2022-07-18T16:07:16;31.20;46.90
35027;DHT22;60696;51.426;6.934;2022-07-18T16:09:42;31.10;48.20
35027;DHT22;60696;51.426;6.934;2022-07-18T16:12:08;31.20;47.70
35027;DHT22;60696;51.426;6.934;2022-07-18T16:14:34;31.10;46.70
35027;DHT22;60696;51.426;6.934;2022-07-18T16:16:59;31.10;46.80
35027;DHT22;60696;51.426;6.934;2022-07-18T16:19:25;31.10;47.60
35027;DHT22;60696;51.426;6.934;2022-07-18T16:21:51;31.10;47.00
35027;DHT22;60696;51.426;6.934;2022-07-18T16:24:17;31.10;46.00
35027;DHT22;60696;51.426;6.934;2022-07-18T16:26:43;31.30;46.80
35027;DHT22;60696;51.426;6.934;2022-07-18T16:29:08;31.20;48.00
35027;DHT22;60696;51.426;6.934;2022-07-18T16:31:34;31.10;49.10
35027;DHT22;60696;51.426;6.934;2022-07-18T16:34:00;31.00;46.90
35027;DHT22;60696;51.426;6.934;2022-07-18T16:36:26;30.90;48.00
35027;DHT22;60696;51.426;6.934;2022-07-18T16:38:52;30.90;48.20
35027;DHT22;60696;51.426;6.934;2022-07-18T16:41:18;30.80;47.00
35027;DHT22;60696;51.426;6.934;2022-07-18T16:43:44;30.90;46.10
35027;DHT22;60696;51.426;6.934;2022-07-18T16:46:10;31.10;45.70
35027;DHT22;60696;51.426;6.934;2022-07-18T16:48:36;31.10;45.80
35027;DHT22;60696;51.426;6.934;2022-07-18T16:51:02;31.00;46.60
35027;DHT22;60696;51.426;6.934;2022-07-18T16:53:30;31.00;47.20
35027;DHT22;60696;51.426;6.934;2022-07-18T16:55:56;30.80;47.30
35027;DHT22;60696;51.426;6.934;2022-07-18T16:58:22;30.80;47.10
35027;DHT22;60696;51.426;6.934;2022-07-18T17:00:48;30.70;47.90
35027;DHT22;60696;51.426;6.934;2022-07-18T17:03:14;30.80;47.10
35027;DHT22;60696;51.426;6.934;2022-07-18T17:05:40;30.80;46.50
35027;DHT22;60696;51.426;6.934;2022-07-18T17:08:06;30.80;48.00